createdAt,value
2022-10-04T00:01:47.833Z,83.00
2022-10-04T00:04:21.697Z,82.70
2022-10-04T00:07:11.827Z,82.90
2022-10-04T00:10:01.892Z,83.10
2022-10-04T00:12:34.871Z,83.10
2022-10-04T00:15:27.427Z,82.70
2022-10-04T00:18:12.214Z,83.50
2022-10-04T00:20:53.056Z,83.70
2022-10-04T00:23:39.954Z,83.70
2022-10-04T00:26:12.873Z,82.50
2022-10-04T00:28:40.106Z,82.40
2022-10-04T00:31:18.988Z,82.80
2022-10-04T00:34:08.596Z,83.40
2022-10-04T00:36:40.377Z,83.20
2022-10-04T00:39:07.114Z,82.10
2022-10-04T00:41:49.282Z,82.20
2022-10-04T00:44:34.663Z,82.40
2022-10-04T00:47:05.118Z,82.10
2022-10-04T00:49:41.693Z,81.60
2022-10-04T00:52:15.776Z,81.50
2022-10-04T00:54:50.301Z,82.00
2022-10-04T00:57:46.870Z,82.00
2022-10-04T01:00:19.728Z,83.10
2022-10-04T01:02:55.948Z,83.90
2022-10-04T01:05:29.394Z,83.80
2022-10-04T01:08:09.906Z,82.50
2022-10-04T01:10:48.900Z,83.00
2022-10-04T01:13:22.985Z,83.60
2022-10-04T01:15:59.421Z,84.00
2022-10-04T01:18:26.195Z,84.00
2022-10-04T01:21:09.505Z,83.30
2022-10-04T01:23:51.293Z,82.40
2022-10-04T01:26:30.318Z,82.80
2022-10-04T01:29:18.513Z,83.20
2022-10-04T01:31:46.695Z,82.70
2022-10-04T01:34:19.850Z,82.50
2022-10-04T01:36:48.709Z,83.00
2022-10-04T01:39:17.693Z,82.60
2022-10-04T01:41:59.160Z,82.50
2022-10-04T01:44:44.476Z,81.90
2022-10-04T01:47:23.863Z,82.20
2022-10-04T01:49:53.175Z,82.70
2022-10-04T01:52:26.199Z,82.80
2022-10-04T01:55:08.167Z,83.10
2022-10-04T01:57:41.336Z,83.30
2022-10-04T02:00:12.364Z,83.00
2022-10-04T02:02:55.108Z,82.30
2022-10-04T02:05:34.921Z,82.40
2022-10-04T02:08:07.771Z,82.60
2022-10-04T02:10:39.800Z,82.30
2022-10-04T02:13:14.054Z,82.30
2022-10-04T02:15:41.333Z,82.60
2022-10-04T02:18:14.626Z,82.20
2022-10-04T02:20:43.419Z,82.00
2022-10-04T02:23:11.935Z,81.80
2022-10-04T02:25:39.108Z,80.60
2022-10-04T02:28:10.966Z,80.10
2022-10-04T02:30:44.545Z,80.80
2022-10-04T02:33:11.859Z,81.30
2022-10-04T02:35:46.321Z,80.40
2022-10-04T02:38:13.020Z,80.00
2022-10-04T02:40:56.084Z,81.10
2022-10-04T02:43:24.319Z,81.30
2022-10-04T02:45:57.629Z,81.20
2022-10-04T02:48:30.615Z,81.00
2022-10-04T02:51:06.363Z,80.30
2022-10-04T02:53:50.704Z,80.90
2022-10-04T02:56:18.983Z,81.00
2022-10-04T02:58:46.407Z,80.60
2022-10-04T03:01:28.350Z,81.10
2022-10-04T03:03:57.112Z,81.40
2022-10-04T03:06:30.187Z,81.90
2022-10-04T03:09:01.048Z,81.90
2022-10-04T03:11:37.838Z,81.40
2022-10-04T03:14:10.195Z,81.20
2022-10-04T03:16:42.474Z,81.00
2022-10-04T03:19:11.375Z,80.60
2022-10-04T03:21:40.763Z,80.80
2022-10-04T03:24:15.319Z,80.80
2022-10-04T03:26:49.446Z,80.50
2022-10-04T03:29:19.101Z,81.40
2022-10-04T03:31:51.802Z,81.70
2022-10-04T03:34:22.950Z,82.10
2022-10-04T03:36:53.360Z,82.00
2022-10-04T03:39:27.328Z,82.50
2022-10-04T03:41:54.548Z,82.70
2022-10-04T03:44:24.363Z,82.90
2022-10-04T03:46:51.136Z,83.40
2022-10-04T03:49:30.057Z,84.20
2022-10-04T03:51:59.051Z,85.00
2022-10-04T03:54:28.048Z,85.40
2022-10-04T03:56:56.043Z,85.60
2022-10-04T03:59:26.343Z,85.80
2022-10-04T04:02:11.718Z,85.70
2022-10-04T04:05:26.434Z,86.30
2022-10-04T04:08:14.379Z,86.70
2022-10-04T04:10:48.631Z,86.40
2022-10-04T04:13:18.283Z,86.90
2022-10-04T04:15:46.143Z,87.10
2022-10-04T04:18:22.247Z,86.40
2022-10-04T04:20:54.518Z,85.50
2022-10-04T04:23:34.176Z,84.30
2022-10-04T04:26:32.343Z,84.90
2022-10-04T04:29:07.446Z,84.80
2022-10-04T04:31:51.078Z,84.70
2022-10-04T04:34:22.270Z,84.20
2022-10-04T04:37:15.754Z,83.60
2022-10-04T04:39:44.916Z,83.60
2022-10-04T04:42:23.584Z,83.90
2022-10-04T04:45:00.846Z,83.40
2022-10-04T04:47:44.537Z,84.30
2022-10-04T04:50:15.857Z,85.00
2022-10-04T04:52:50.426Z,84.50
2022-10-04T04:56:02.192Z,85.20
2022-10-04T04:58:37.115Z,86.00
2022-10-04T05:01:09.134Z,86.20
2022-10-04T05:03:36.240Z,87.20
2022-10-04T05:06:05.030Z,88.10
2022-10-04T05:08:38.535Z,88.00
2022-10-04T05:11:10.063Z,87.70
2022-10-04T05:13:50.843Z,87.30
2022-10-04T05:16:42.592Z,87.50
2022-10-04T05:19:17.235Z,87.10
2022-10-04T05:21:49.340Z,87.30
2022-10-04T05:24:27.722Z,87.70
2022-10-04T05:27:00.395Z,87.50
2022-10-04T05:29:32.331Z,87.00
2022-10-04T05:32:20.682Z,87.10
2022-10-04T05:34:50.233Z,87.30
2022-10-04T05:37:34.341Z,86.80
2022-10-04T05:40:13.031Z,86.10
2022-10-04T05:42:45.711Z,84.80
2022-10-04T05:45:25.130Z,84.20
2022-10-04T05:47:55.010Z,83.10
2022-10-04T05:50:35.332Z,83.20
2022-10-04T05:53:17.402Z,82.80
2022-10-04T05:56:21.639Z,82.10
2022-10-04T05:59:40.251Z,81.40
2022-10-04T06:02:12.896Z,80.80
2022-10-04T06:04:45.607Z,79.90
2022-10-04T06:07:23.058Z,80.20
2022-10-04T06:09:55.779Z,80.60
2022-10-04T06:12:48.401Z,80.20
2022-10-04T06:15:27.150Z,79.90
2022-10-04T06:18:22.872Z,79.80
2022-10-04T06:21:25.566Z,79.50
2022-10-04T06:24:00.621Z,79.70
2022-10-04T06:26:43.770Z,80.90
2022-10-04T06:29:20.586Z,80.60
2022-10-04T06:32:02.276Z,80.40
2022-10-04T06:34:45.509Z,79.40
2022-10-04T06:37:44.402Z,78.80
2022-10-04T06:40:51.081Z,78.50
2022-10-04T06:43:43.990Z,78.80
2022-10-04T06:46:17.290Z,78.60
2022-10-04T06:49:11.856Z,78.00
2022-10-04T06:52:05.712Z,77.10
2022-10-04T06:54:35.520Z,75.70
2022-10-04T06:57:39.795Z,73.70
2022-10-04T07:00:14.108Z,75.30
2022-10-04T07:03:04.632Z,74.90
2022-10-04T07:05:55.604Z,74.10
2022-10-04T07:08:48.070Z,73.80
2022-10-04T07:11:37.224Z,74.40
2022-10-04T07:14:04.065Z,73.80
2022-10-04T07:17:01.273Z,73.60
2022-10-04T07:19:48.271Z,73.70
2022-10-04T07:22:29.166Z,72.50
2022-10-04T07:25:08.347Z,70.50
2022-10-04T07:28:10.210Z,69.80
2022-10-04T07:30:41.956Z,69.90
2022-10-04T07:33:13.513Z,69.30
2022-10-04T07:35:48.858Z,68.30
2022-10-04T07:38:18.272Z,67.20
2022-10-04T07:41:09.451Z,65.60
2022-10-04T07:43:47.133Z,65.90
2022-10-04T07:46:37.229Z,65.20
2022-10-04T07:49:04.480Z,64.30
2022-10-04T07:51:52.601Z,63.70
2022-10-04T07:54:58.511Z,63.20
2022-10-04T07:57:51.274Z,62.40
2022-10-04T08:00:24.666Z,62.50
2022-10-04T08:03:00.045Z,63.50
2022-10-04T08:05:29.808Z,65.50
2022-10-04T08:08:18.070Z,65.00
2022-10-04T08:10:57.483Z,64.80
2022-10-04T08:13:45.418Z,63.50
2022-10-04T08:16:26.327Z,63.20
2022-10-04T08:19:17.843Z,64.00
2022-10-04T08:22:17.962Z,63.50
2022-10-04T08:24:52.612Z,62.10
2022-10-04T08:27:34.758Z,61.30
2022-10-04T08:30:16.686Z,60.10
2022-10-04T08:33:24.200Z,59.70
2022-10-04T08:36:05.873Z,59.40
2022-10-04T08:38:45.014Z,59.70
2022-10-04T08:41:54.073Z,59.40
2022-10-04T08:44:51.232Z,58.20
2022-10-04T08:47:58.293Z,58.80
2022-10-04T08:50:42.847Z,58.70
2022-10-04T08:53:42.213Z,59.30
2022-10-04T08:56:32.938Z,59.30
2022-10-04T08:59:14.866Z,58.50
2022-10-04T09:02:06.874Z,58.10
2022-10-04T09:04:56.591Z,57.80
2022-10-04T09:07:32.415Z,57.50
2022-10-04T09:10:29.497Z,56.80
2022-10-04T09:13:12.252Z,56.60
2022-10-04T09:15:46.081Z,58.40
2022-10-04T09:18:12.817Z,59.30
2022-10-04T09:20:54.718Z,60.00
2022-10-04T09:23:22.125Z,59.50
2022-10-04T09:26:06.403Z,60.20
2022-10-04T09:28:42.167Z,59.60
2022-10-04T09:31:16.474Z,59.60
2022-10-04T09:33:55.117Z,59.10
2022-10-04T09:36:41.326Z,59.80
2022-10-04T09:39:35.616Z,59.10
2022-10-04T09:42:31.560Z,58.70
2022-10-04T09:45:20.304Z,59.70
2022-10-04T09:48:25.230Z,60.10
2022-10-04T09:51:24.661Z,60.90
2022-10-04T09:54:15.775Z,60.40
2022-10-04T09:57:03.390Z,59.30
2022-10-04T09:59:57.955Z,59.80
2022-10-04T10:02:29.143Z,60.90
2022-10-04T10:05:11.244Z,59.70
2022-10-04T10:08:08.670Z,58.70
2022-10-04T10:11:13.624Z,58.10
2022-10-04T10:14:07.370Z,57.90
2022-10-04T10:16:43.125Z,58.30
2022-10-04T10:19:40.996Z,59.10
2022-10-04T10:22:41.518Z,59.20
2022-10-04T10:25:37.164Z,59.00
2022-10-04T10:28:36.530Z,59.60
2022-10-04T10:31:21.608Z,58.50
2022-10-04T10:34:00.342Z,58.00
2022-10-04T10:37:04.254Z,56.80
2022-10-04T10:39:37.992Z,55.50
2022-10-04T10:42:43.041Z,53.80
2022-10-04T10:45:34.182Z,53.80
2022-10-04T10:48:06.377Z,54.00
2022-10-04T10:51:22.970Z,54.60
2022-10-04T10:54:27.349Z,55.20
2022-10-04T10:57:00.817Z,55.10
2022-10-04T11:00:05.464Z,55.20
2022-10-04T11:02:49.963Z,54.80
2022-10-04T11:05:58.126Z,54.70
2022-10-04T11:08:37.059Z,54.60
2022-10-04T11:11:17.214Z,54.70
2022-10-04T11:13:55.847Z,54.20
2022-10-04T11:16:34.370Z,55.50
2022-10-04T11:19:16.127Z,54.90
2022-10-04T11:22:07.327Z,54.40
2022-10-04T11:25:01.925Z,54.50
2022-10-04T11:27:48.926Z,54.20
2022-10-04T11:30:26.344Z,55.70
2022-10-04T11:33:14.741Z,54.00
2022-10-04T11:36:19.179Z,53.90
2022-10-04T11:39:01.276Z,53.40
2022-10-04T11:41:48.255Z,53.40
2022-10-04T11:44:33.132Z,53.70
2022-10-04T11:47:21.808Z,54.60
2022-10-04T11:50:03.880Z,54.40
2022-10-04T11:52:42.946Z,54.70
2022-10-04T11:55:38.947Z,55.00
2022-10-04T11:58:40.002Z,55.30
2022-10-04T12:01:30.418Z,54.70
2022-10-04T12:04:21.470Z,53.90
2022-10-04T12:06:50.945Z,54.50
2022-10-04T12:09:39.492Z,54.30
2022-10-04T12:12:36.746Z,53.60
2022-10-04T12:15:25.996Z,53.80
2022-10-04T12:18:06.160Z,53.70
2022-10-04T12:20:57.922Z,54.20
2022-10-04T12:23:46.520Z,54.00
2022-10-04T12:26:41.098Z,54.00
2022-10-04T12:29:37.077Z,53.30
2022-10-04T12:32:20.323Z,53.80
2022-10-04T12:35:05.908Z,52.80
2022-10-04T12:37:40.601Z,52.50
2022-10-04T12:40:33.305Z,52.90
2022-10-04T12:43:21.723Z,52.10
2022-10-04T12:46:07.917Z,51.40
2022-10-04T12:48:43.050Z,52.00
2022-10-04T12:51:48.591Z,51.50
2022-10-04T12:54:33.424Z,51.20
2022-10-04T12:57:04.042Z,51.70
2022-10-04T12:59:43.539Z,51.90
2022-10-04T13:02:35.536Z,52.00
2022-10-04T13:05:36.967Z,51.20
2022-10-04T13:08:32.351Z,49.10
2022-10-04T13:11:20.727Z,46.60
2022-10-04T13:14:05.726Z,44.80
2022-10-04T13:20:15.234Z,46.20
2022-10-04T13:22:58.921Z,45.90
2022-10-04T13:25:45.719Z,47.00
2022-10-04T13:28:16.725Z,47.00
2022-10-04T13:31:15.191Z,48.10
2022-10-04T13:34:19.912Z,48.20
2022-10-04T13:36:58.598Z,47.50
2022-10-04T13:39:48.232Z,46.50
2022-10-04T13:42:49.868Z,46.40
2022-10-04T13:45:25.750Z,46.60
2022-10-04T13:48:01.344Z,44.70
2022-10-04T13:50:56.797Z,45.50
2022-10-04T13:54:03.874Z,45.40
2022-10-04T13:57:01.238Z,46.10
2022-10-04T14:00:06.492Z,46.80
2022-10-04T14:02:48.236Z,47.50
2022-10-04T14:06:00.614Z,47.30
2022-10-04T14:08:48.437Z,47.70
2022-10-04T14:11:43.581Z,48.40
2022-10-04T14:14:17.400Z,48.80
2022-10-04T14:16:47.300Z,48.60
2022-10-04T14:20:03.877Z,48.70
2022-10-04T14:22:54.348Z,48.80
2022-10-04T14:25:58.691Z,48.70
2022-10-04T14:28:28.281Z,49.90
2022-10-04T14:31:26.059Z,50.10
2022-10-04T14:33:58.735Z,50.10
2022-10-04T14:36:41.001Z,49.80
2022-10-04T14:39:17.826Z,50.00
2022-10-04T14:41:50.496Z,49.90
2022-10-04T14:44:35.972Z,49.70
2022-10-04T14:47:30.438Z,49.00
2022-10-04T14:50:27.601Z,48.00
2022-10-04T14:53:28.496Z,48.30
2022-10-04T14:56:27.319Z,47.00
2022-10-04T14:59:15.350Z,47.60
2022-10-04T15:02:19.411Z,47.90
2022-10-04T15:04:48.954Z,47.00
2022-10-04T15:07:23.265Z,45.50
2022-10-04T15:10:03.219Z,46.00
2022-10-04T15:13:11.780Z,46.20
2022-10-04T15:16:11.460Z,46.40
2022-10-04T15:18:57.281Z,46.50
2022-10-04T15:21:33.784Z,46.50
2022-10-04T15:24:15.891Z,47.30
2022-10-04T15:27:16.233Z,47.30
2022-10-04T15:30:09.835Z,47.50
2022-10-04T15:32:39.266Z,47.60
2022-10-04T15:35:33.039Z,47.90
2022-10-04T15:38:32.699Z,48.30
2022-10-04T15:41:04.009Z,48.70
2022-10-04T15:44:15.483Z,49.00
2022-10-04T15:46:51.013Z,49.00
2022-10-04T15:50:00.694Z,49.60
2022-10-04T15:52:58.128Z,49.60
2022-10-04T15:55:37.905Z,49.90
2022-10-04T15:58:26.614Z,49.70
2022-10-04T16:01:20.309Z,49.80
2022-10-04T16:04:10.239Z,50.00
2022-10-04T16:07:08.917Z,50.30
2022-10-04T16:09:59.457Z,50.00
2022-10-04T16:12:33.018Z,50.10
2022-10-04T16:14:59.845Z,50.20
2022-10-04T16:17:47.913Z,50.80
2022-10-04T16:20:20.630Z,51.10
2022-10-04T16:23:26.294Z,51.40
2022-10-04T16:26:16.846Z,51.80
2022-10-04T16:29:00.567Z,52.30
2022-10-04T16:31:56.166Z,53.00
2022-10-04T16:35:00.639Z,53.10
2022-10-04T16:37:33.123Z,53.80
2022-10-04T16:40:18.971Z,54.30
2022-10-04T16:42:45.693Z,54.70
2022-10-04T16:45:12.392Z,55.00
2022-10-04T16:47:55.536Z,55.10
2022-10-04T16:51:00.452Z,55.40
2022-10-04T16:53:59.454Z,55.80
2022-10-04T16:56:29.765Z,56.20
2022-10-04T16:59:12.361Z,56.90
2022-10-04T17:02:16.987Z,59.00
2022-10-04T17:04:47.448Z,60.00
2022-10-04T17:07:26.220Z,60.10
2022-10-04T17:09:57.573Z,60.80
2022-10-04T17:12:48.752Z,61.70
2022-10-04T17:15:15.426Z,62.50
2022-10-04T17:18:19.771Z,63.70
2022-10-04T17:20:58.954Z,64.80
2022-10-04T17:23:43.739Z,66.00
2022-10-04T17:26:38.385Z,66.80
2022-10-04T17:29:28.669Z,67.90
2022-10-04T17:32:24.664Z,68.80
2022-10-04T17:35:16.002Z,68.80
2022-10-04T17:38:03.929Z,68.50
2022-10-04T17:40:51.824Z,69.00
2022-10-04T17:43:41.301Z,70.60
2022-10-04T17:46:38.179Z,70.90
2022-10-04T17:49:29.515Z,70.50
2022-10-04T17:52:20.279Z,70.30
2022-10-04T17:55:08.458Z,70.70
2022-10-04T17:57:41.011Z,72.00
2022-10-04T18:00:13.773Z,73.10
2022-10-04T18:03:00.977Z,74.00
2022-10-04T18:05:34.043Z,74.90
2022-10-04T18:08:10.392Z,75.00
2022-10-04T18:10:52.389Z,75.40
2022-10-04T18:13:29.343Z,75.40
2022-10-04T18:16:23.531Z,75.40
2022-10-04T18:18:51.023Z,76.10
2022-10-04T18:21:28.374Z,76.40
2022-10-04T18:23:56.507Z,76.50
2022-10-04T18:26:26.578Z,77.20
2022-10-04T18:28:56.522Z,77.40
2022-10-04T18:31:32.354Z,77.60
2022-10-04T18:34:16.520Z,77.60
2022-10-04T18:36:50.929Z,77.80
2022-10-04T18:39:24.328Z,77.90
2022-10-04T18:42:19.583Z,78.10
2022-10-04T18:45:00.724Z,78.90
2022-10-04T18:47:35.324Z,80.50
2022-10-04T18:50:14.009Z,80.90
2022-10-04T18:52:43.792Z,81.30
2022-10-04T18:55:10.820Z,82.40
2022-10-04T18:58:00.744Z,84.00
2022-10-04T19:00:55.941Z,84.80
2022-10-04T19:03:54.951Z,85.40
2022-10-04T19:06:34.555Z,86.00
2022-10-04T19:09:29.130Z,85.80
2022-10-04T19:12:05.009Z,85.90
2022-10-04T19:14:40.670Z,86.40
2022-10-04T19:17:26.787Z,86.10
2022-10-04T19:20:19.194Z,87.00
2022-10-04T19:23:19.605Z,87.70
2022-10-04T19:26:17.699Z,88.00
2022-10-04T19:28:38.666Z,88.50
2022-10-04T19:31:05.443Z,88.80
2022-10-04T19:33:52.182Z,88.70
2022-10-04T19:36:24.654Z,88.80
2022-10-04T19:39:10.313Z,88.90
2022-10-04T19:41:48.283Z,89.10
2022-10-04T19:44:36.832Z,89.10
2022-10-04T19:47:42.377Z,88.60
2022-10-04T19:50:26.983Z,88.10
2022-10-04T19:53:12.855Z,88.10
2022-10-04T19:55:55.910Z,87.90
2022-10-04T19:58:25.717Z,87.50
2022-10-04T20:00:57.320Z,87.00
2022-10-04T20:03:24.490Z,87.00
2022-10-04T20:05:53.507Z,87.30
2022-10-04T20:08:44.996Z,86.90
2022-10-04T20:11:27.173Z,86.50
2022-10-04T20:14:08.696Z,86.60
2022-10-04T20:16:48.435Z,86.40
2022-10-04T20:19:20.192Z,86.70
2022-10-04T20:21:47.110Z,86.80
2022-10-04T20:24:18.756Z,86.70
2022-10-04T20:26:54.223Z,86.50
2022-10-04T20:29:36.895Z,86.40
2022-10-04T20:32:04.169Z,86.70
2022-10-04T20:34:49.180Z,87.40
2022-10-04T20:37:19.118Z,87.70
2022-10-04T20:39:45.821Z,88.90
2022-10-04T20:42:35.159Z,88.80
2022-10-04T20:45:06.063Z,88.80
2022-10-04T20:47:41.749Z,88.10
2022-10-04T20:50:23.997Z,88.60
2022-10-04T20:52:53.585Z,89.00
2022-10-04T20:55:28.221Z,89.70
2022-10-04T20:57:57.835Z,90.30
2022-10-04T21:00:27.254Z,90.50
2022-10-04T21:03:18.984Z,90.20
2022-10-04T21:05:59.930Z,90.20
2022-10-04T21:08:27.660Z,90.10
2022-10-04T21:11:08.515Z,89.90
2022-10-04T21:13:48.477Z,90.10
2022-10-04T21:16:35.445Z,90.00
2022-10-04T21:19:33.522Z,90.10
2022-10-04T21:22:05.768Z,90.10
2022-10-04T21:24:50.764Z,90.00
2022-10-04T21:27:33.945Z,90.30
2022-10-04T21:30:02.846Z,90.20
2022-10-04T21:32:34.813Z,90.40
2022-10-04T21:35:02.726Z,90.60
2022-10-04T21:37:30.022Z,91.10
2022-10-04T21:39:56.817Z,90.80
2022-10-04T21:42:23.817Z,90.60
2022-10-04T21:44:50.667Z,91.30
2022-10-04T21:47:17.735Z,91.50
2022-10-04T21:49:44.518Z,91.00
2022-10-04T21:52:11.408Z,91.10
2022-10-04T21:54:38.303Z,91.10
2022-10-04T21:57:05.155Z,91.10
2022-10-04T21:59:31.946Z,90.90
2022-10-04T22:01:59.185Z,90.70
2022-10-04T22:04:26.056Z,90.60
2022-10-04T22:06:53.039Z,90.70
2022-10-04T22:09:20.117Z,90.30
2022-10-04T22:11:46.955Z,90.40
2022-10-04T22:14:13.833Z,90.80
2022-10-04T22:16:40.695Z,91.10
2022-10-04T22:19:07.514Z,90.90
2022-10-04T22:21:34.289Z,91.10
2022-10-04T22:24:03.986Z,91.10
2022-10-04T22:26:31.810Z,90.90
2022-10-04T22:28:58.695Z,90.70
2022-10-04T22:31:28.063Z,90.70
2022-10-04T22:33:56.033Z,91.00
2022-10-04T22:36:38.894Z,91.30
2022-10-04T22:39:08.679Z,91.10
2022-10-04T22:41:37.433Z,90.90
2022-10-04T22:44:13.847Z,90.90
2022-10-04T22:46:43.700Z,90.80
2022-10-04T22:49:13.539Z,90.80
2022-10-04T22:51:42.436Z,91.00
2022-10-04T22:54:17.882Z,90.60
2022-10-04T22:56:44.950Z,90.40
2022-10-04T22:59:14.241Z,90.00
2022-10-04T23:01:42.270Z,89.00
2022-10-04T23:04:22.944Z,89.90
2022-10-04T23:06:50.775Z,89.80
2022-10-04T23:09:18.026Z,89.40
2022-10-04T23:11:45.313Z,90.00
2022-10-04T23:14:13.033Z,90.20
2022-10-04T23:16:40.024Z,90.60
2022-10-04T23:19:13.574Z,90.90
2022-10-04T23:21:45.499Z,91.10
2022-10-04T23:24:23.104Z,91.00
2022-10-04T23:26:54.660Z,91.10
2022-10-04T23:29:27.949Z,91.10
2022-10-04T23:31:56.597Z,91.10
2022-10-04T23:34:33.048Z,91.10
2022-10-04T23:37:00.165Z,90.90
2022-10-04T23:39:30.848Z,91.10
2022-10-04T23:41:58.056Z,91.10
2022-10-04T23:44:32.998Z,91.00
2022-10-04T23:47:00.467Z,91.00
2022-10-04T23:49:27.630Z,90.80
2022-10-04T23:52:02.317Z,91.00
2022-10-04T23:54:29.978Z,90.90
2022-10-04T23:56:56.728Z,90.60
2022-10-04T23:59:25.115Z,90.70
